createdAt,value
2024-04-18T00:01:55.513Z,1.75
2024-04-18T00:04:22.267Z,1.79
2024-04-18T00:06:48.960Z,1.73
2024-04-18T00:09:16.012Z,1.71
2024-04-18T00:11:46.834Z,1.47
2024-04-18T00:14:15.780Z,1.49
2024-04-18T00:16:42.401Z,1.40
2024-04-18T00:19:08.983Z,1.64
2024-04-18T00:21:38.779Z,1.56
2024-04-18T00:24:05.960Z,1.40
2024-04-18T00:26:35.947Z,1.42
2024-04-18T00:29:05.380Z,1.49
2024-04-18T00:31:32.242Z,1.48
2024-04-18T00:33:59.038Z,1.37
2024-04-18T00:36:25.840Z,1.19
2024-04-18T00:38:52.576Z,1.24
2024-04-18T00:41:24.148Z,1.17
2024-04-18T00:43:50.744Z,1.15
2024-04-18T00:46:17.446Z,1.07
2024-04-18T00:48:44.531Z,1.14
2024-04-18T00:51:11.357Z,1.08
2024-04-18T00:53:38.458Z,1.19
2024-04-18T00:56:07.947Z,1.18
2024-04-18T00:58:34.779Z,0.88
2024-04-18T01:01:01.870Z,0.91
2024-04-18T01:03:29.671Z,1.10
2024-04-18T01:05:57.287Z,1.12
2024-04-18T01:08:24.196Z,1.18
2024-04-18T01:10:50.844Z,1.11
2024-04-18T01:13:17.429Z,0.95
2024-04-18T01:15:44.166Z,0.89
2024-04-18T01:18:10.811Z,1.04
2024-04-18T01:20:38.639Z,1.06
2024-04-18T01:23:07.807Z,0.90
2024-04-18T01:25:34.824Z,0.74
2024-04-18T01:28:01.469Z,0.83
2024-04-18T01:30:28.082Z,0.56
2024-04-18T01:32:54.957Z,0.53
2024-04-18T01:35:37.936Z,0.44
2024-04-18T01:38:04.582Z,0.74
2024-04-18T01:40:38.706Z,0.56
2024-04-18T01:43:25.377Z,0.56
2024-04-18T01:45:52.051Z,0.45
2024-04-18T01:48:21.909Z,0.58
2024-04-18T01:50:48.665Z,0.47
2024-04-18T01:53:15.261Z,0.74
2024-04-18T01:55:42.191Z,0.40
2024-04-18T01:58:10.715Z,0.49
2024-04-18T02:00:44.154Z,0.57
2024-04-18T02:03:10.997Z,0.74
2024-04-18T02:05:38.133Z,0.58
2024-04-18T02:08:07.396Z,0.44
2024-04-18T02:10:35.888Z,0.56
2024-04-18T02:13:08.337Z,0.70
2024-04-18T02:15:34.985Z,0.62
2024-04-18T02:18:04.957Z,0.58
2024-04-18T02:20:42.188Z,0.38
2024-04-18T02:23:08.759Z,0.65
2024-04-18T02:25:35.508Z,0.49
2024-04-18T02:28:04.693Z,0.53
2024-04-18T02:30:31.870Z,0.29
2024-04-18T02:32:58.714Z,0.41
2024-04-18T02:35:26.085Z,0.45
2024-04-18T02:37:52.643Z,0.40
2024-04-18T02:40:19.269Z,0.36
2024-04-18T02:42:47.411Z,0.55
2024-04-18T02:45:15.302Z,0.22
2024-04-18T02:47:45.122Z,0.44
2024-04-18T02:50:11.694Z,0.23
2024-04-18T02:52:38.620Z,0.31
2024-04-18T02:55:06.730Z,0.49
2024-04-18T02:57:35.568Z,0.33
2024-04-18T03:00:07.307Z,0.21
2024-04-18T03:02:34.112Z,0.12
2024-04-18T03:05:01.017Z,0.33
2024-04-18T03:07:29.994Z,0.24
2024-04-18T03:09:56.859Z,0.15
2024-04-18T03:12:29.116Z,0.08
2024-04-18T03:15:03.843Z,-0.05
2024-04-18T03:17:33.384Z,0.06
2024-04-18T03:20:03.330Z,0.07
2024-04-18T03:22:32.737Z,0.19
2024-04-18T03:25:03.556Z,0.44
2024-04-18T03:27:32.367Z,0.41
2024-04-18T03:30:01.745Z,0.42
2024-04-18T03:32:28.371Z,0.27
2024-04-18T03:34:57.424Z,0.31
2024-04-18T03:37:29.859Z,0.19
2024-04-18T03:39:56.908Z,0.16
2024-04-18T03:42:24.635Z,0.01
2024-04-18T03:44:51.318Z,-0.01
2024-04-18T03:47:17.951Z,0.04
2024-04-18T03:49:44.501Z,0.06
2024-04-18T03:52:12.603Z,-0.09
2024-04-18T03:54:55.491Z,-0.06
2024-04-18T03:57:27.386Z,0.12
2024-04-18T03:59:56.747Z,-0.16
2024-04-18T04:02:23.870Z,-0.03
2024-04-18T04:04:53.410Z,-0.11
2024-04-18T04:07:22.977Z,0.02
2024-04-18T04:09:50.151Z,-0.08
2024-04-18T04:12:17.926Z,0.01
2024-04-18T04:14:45.807Z,-0.04
2024-04-18T04:17:14.718Z,0.01
2024-04-18T04:19:41.468Z,-0.14
2024-04-18T04:22:08.590Z,-0.11
2024-04-18T04:24:35.398Z,-0.19
2024-04-18T04:27:05.057Z,-0.35
2024-04-18T04:29:33.668Z,-0.24
2024-04-18T04:32:01.403Z,-0.21
2024-04-18T04:34:30.995Z,-0.25
2024-04-18T04:36:57.678Z,-0.09
2024-04-18T04:39:25.439Z,-0.26
2024-04-18T04:41:52.044Z,-0.19
2024-04-18T04:44:18.939Z,-0.29
2024-04-18T04:46:45.497Z,-0.37
2024-04-18T04:49:12.145Z,-0.29
2024-04-18T04:51:39.051Z,-0.08
2024-04-18T04:54:07.012Z,-0.04
2024-04-18T04:56:35.160Z,-0.25
2024-04-18T04:59:01.938Z,0.09
2024-04-18T05:01:31.174Z,0.25
2024-04-18T05:04:00.638Z,0.06
2024-04-18T05:06:36.663Z,0.31
2024-04-18T05:09:07.787Z,0.47
2024-04-18T05:11:37.980Z,0.52
2024-04-18T05:14:16.469Z,0.47
2024-04-18T05:16:46.223Z,0.50
2024-04-18T05:19:15.154Z,0.63
2024-04-18T05:21:41.913Z,0.81
2024-04-18T05:24:14.534Z,0.92
2024-04-18T05:26:45.648Z,0.86
2024-04-18T05:29:12.560Z,1.16
2024-04-18T05:31:41.894Z,0.85
2024-04-18T05:34:13.477Z,1.24
2024-04-18T05:36:40.371Z,1.13
2024-04-18T05:39:09.858Z,1.24
2024-04-18T05:41:36.491Z,1.26
2024-04-18T05:44:03.050Z,1.11
2024-04-18T05:46:31.843Z,1.32
2024-04-18T05:48:59.599Z,1.31
2024-04-18T05:51:26.392Z,1.52
2024-04-18T05:53:54.911Z,1.55
2024-04-18T05:56:21.628Z,2.33
2024-04-18T05:58:48.449Z,2.96
2024-04-18T06:01:15.302Z,3.63
2024-04-18T06:03:41.982Z,4.41
2024-04-18T06:06:12.981Z,4.77
2024-04-18T06:08:40.979Z,4.88
2024-04-18T06:11:07.641Z,4.63
2024-04-18T06:13:35.254Z,4.73
2024-04-18T06:16:02.039Z,4.90
2024-04-18T06:18:32.144Z,5.83
2024-04-18T06:21:01.956Z,6.22
2024-04-18T06:23:30.209Z,6.58
2024-04-18T06:25:57.875Z,7.21
2024-04-18T06:28:24.728Z,7.50
2024-04-18T06:30:51.422Z,8.22
2024-04-18T06:33:18.672Z,8.25
2024-04-18T06:35:45.269Z,8.09
2024-04-18T06:38:14.510Z,8.47
2024-04-18T06:40:42.007Z,8.74
2024-04-18T06:43:08.506Z,8.86
2024-04-18T06:45:35.178Z,9.11
2024-04-18T06:48:01.800Z,9.28
2024-04-18T06:50:28.471Z,9.73
2024-04-18T06:52:54.971Z,10.29
2024-04-18T06:55:29.512Z,10.00
2024-04-18T06:57:56.195Z,10.28
2024-04-18T07:00:22.820Z,10.39
2024-04-18T07:02:49.369Z,10.92
2024-04-18T07:05:18.832Z,11.52
2024-04-18T07:07:45.453Z,11.54
2024-04-18T07:10:14.735Z,12.03
2024-04-18T07:12:41.734Z,11.54
2024-04-18T07:15:08.768Z,11.73
2024-04-18T07:17:36.975Z,11.84
2024-04-18T07:20:03.835Z,12.13
2024-04-18T07:22:30.479Z,12.94
2024-04-18T07:24:57.641Z,13.33
2024-04-18T07:27:27.184Z,13.08
2024-04-18T07:29:56.720Z,13.12
2024-04-18T07:32:23.326Z,13.07
2024-04-18T07:34:50.035Z,12.80
2024-04-18T07:37:16.587Z,13.09
2024-04-18T07:39:46.288Z,13.66
2024-04-18T07:42:13.023Z,14.07
2024-04-18T07:44:40.518Z,13.94
2024-04-18T07:47:07.354Z,13.77
2024-04-18T07:49:34.103Z,13.86
2024-04-18T07:52:06.712Z,13.82
2024-04-18T07:54:39.126Z,14.14
2024-04-18T07:57:06.067Z,14.63
2024-04-18T07:59:33.516Z,14.52
2024-04-18T08:02:04.323Z,15.17
2024-04-18T08:04:50.943Z,15.82
2024-04-18T08:07:20.888Z,16.24
2024-04-18T08:09:52.873Z,16.20
2024-04-18T08:12:28.126Z,16.39
2024-04-18T08:15:00.854Z,16.25
2024-04-18T08:17:33.498Z,15.70
2024-04-18T08:20:00.101Z,15.58
2024-04-18T08:22:26.733Z,15.83
2024-04-18T08:24:53.245Z,15.35
2024-04-18T08:27:19.797Z,16.08
2024-04-18T08:29:46.390Z,16.39
2024-04-18T08:32:12.945Z,16.61
2024-04-18T08:34:42.331Z,17.01
2024-04-18T08:37:10.346Z,16.17
2024-04-18T08:39:37.379Z,16.08
2024-04-18T08:42:05.424Z,17.02
2024-04-18T08:44:32.452Z,17.61
2024-04-18T08:47:01.502Z,18.02
2024-04-18T08:49:29.542Z,18.07
2024-04-18T08:51:59.650Z,18.96
2024-04-18T08:54:26.353Z,19.44
2024-04-18T08:56:57.666Z,19.45
2024-04-18T08:59:24.295Z,17.94
2024-04-18T09:01:52.162Z,16.40
2024-04-18T09:04:18.921Z,15.41
2024-04-18T09:06:45.438Z,14.65
2024-04-18T09:09:17.349Z,13.68
2024-04-18T09:11:47.636Z,15.39
2024-04-18T09:14:14.687Z,15.21
2024-04-18T09:16:46.141Z,14.81
2024-04-18T09:19:13.859Z,14.92
2024-04-18T09:21:42.573Z,15.29
2024-04-18T09:24:09.246Z,15.23
2024-04-18T09:26:35.857Z,15.89
2024-04-18T09:29:02.494Z,17.00
2024-04-18T09:31:37.957Z,17.71
2024-04-18T09:34:10.842Z,17.91
2024-04-18T09:36:43.493Z,18.30
2024-04-18T09:39:15.049Z,18.63
2024-04-18T09:41:51.268Z,18.85
2024-04-18T09:44:23.090Z,18.90
2024-04-18T09:46:52.403Z,17.93
2024-04-18T09:49:19.936Z,16.96
2024-04-18T09:51:48.282Z,18.41
2024-04-18T09:54:15.662Z,18.21
2024-04-18T09:56:43.583Z,16.49
2024-04-18T09:59:14.514Z,15.17
2024-04-18T10:01:48.220Z,14.40
2024-04-18T10:04:15.015Z,14.74
2024-04-18T10:06:47.209Z,17.34
2024-04-18T10:09:17.684Z,18.04
2024-04-18T10:11:45.622Z,17.09
2024-04-18T10:14:13.047Z,16.28
2024-04-18T10:16:51.023Z,15.32
2024-04-18T10:19:33.303Z,14.17
2024-04-18T10:22:16.621Z,13.90
2024-04-18T10:24:52.930Z,13.29
2024-04-18T10:27:21.101Z,15.94
2024-04-18T10:30:02.700Z,15.27
2024-04-18T10:32:30.715Z,13.94
2024-04-18T10:34:59.505Z,14.03
2024-04-18T10:37:28.775Z,17.12
2024-04-18T10:39:58.587Z,18.49
2024-04-18T10:42:25.531Z,18.94
2024-04-18T10:44:52.518Z,17.32
2024-04-18T10:47:22.323Z,18.39
2024-04-18T10:49:49.246Z,18.67
2024-04-18T10:52:17.422Z,17.41
2024-04-18T10:54:45.149Z,17.87
2024-04-18T10:57:11.942Z,19.76
2024-04-18T10:59:41.141Z,20.06
2024-04-18T11:02:09.003Z,20.53
2024-04-18T11:04:46.611Z,19.94
2024-04-18T11:07:16.265Z,18.23
2024-04-18T11:09:45.836Z,17.84
2024-04-18T11:12:12.908Z,20.24
2024-04-18T11:14:39.520Z,20.24
2024-04-18T11:17:07.937Z,17.22
2024-04-18T11:19:37.450Z,16.96
2024-04-18T11:22:04.342Z,17.71
2024-04-18T11:24:31.036Z,19.41
2024-04-18T11:26:57.858Z,20.17
2024-04-18T11:29:31.464Z,20.99
2024-04-18T11:32:08.731Z,19.68
2024-04-18T11:34:36.863Z,18.57
2024-04-18T11:37:03.511Z,18.92
2024-04-18T11:39:33.021Z,18.19
2024-04-18T11:41:59.820Z,18.40
2024-04-18T11:44:27.178Z,19.22
2024-04-18T11:46:54.167Z,20.12
2024-04-18T11:49:20.957Z,17.25
2024-04-18T11:51:47.530Z,16.89
2024-04-18T11:54:14.125Z,17.46
2024-04-18T11:56:40.814Z,15.43
2024-04-18T11:59:07.449Z,15.45
2024-04-18T12:01:33.967Z,15.50
2024-04-18T12:04:00.718Z,16.73
2024-04-18T12:06:27.617Z,19.07
2024-04-18T12:08:55.400Z,18.91
2024-04-18T12:11:23.672Z,17.20
2024-04-18T12:13:50.166Z,15.57
2024-04-18T12:16:16.763Z,16.86
2024-04-18T12:18:46.376Z,18.00
2024-04-18T12:21:12.947Z,18.59
2024-04-18T12:23:47.098Z,18.96
2024-04-18T12:26:23.631Z,18.43
2024-04-18T12:28:50.101Z,19.32
2024-04-18T12:31:16.669Z,19.26
2024-04-18T12:33:43.531Z,18.10
2024-04-18T12:36:10.226Z,16.84
2024-04-18T12:38:37.081Z,16.80
2024-04-18T12:41:05.999Z,16.83
2024-04-18T12:43:33.193Z,16.43
2024-04-18T12:46:10.506Z,15.79
2024-04-18T12:48:42.931Z,15.93
2024-04-18T12:51:12.571Z,17.62
2024-04-18T12:53:40.658Z,15.93
2024-04-18T12:56:07.395Z,14.93
2024-04-18T12:58:34.818Z,13.68
2024-04-18T13:01:01.847Z,13.93
2024-04-18T13:03:28.787Z,13.87
2024-04-18T13:05:55.477Z,14.99
2024-04-18T13:08:22.082Z,14.72
2024-04-18T13:10:50.843Z,16.12
2024-04-18T13:13:17.382Z,15.73
2024-04-18T13:15:44.019Z,15.24
2024-04-18T13:18:10.866Z,15.52
2024-04-18T13:20:37.539Z,15.13
2024-04-18T13:23:04.219Z,15.35
2024-04-18T13:25:30.732Z,14.48
2024-04-18T13:27:58.158Z,14.24
2024-04-18T13:30:27.794Z,13.37
2024-04-18T13:32:54.872Z,13.71
2024-04-18T13:35:21.429Z,13.65
2024-04-18T13:37:48.079Z,13.26
2024-04-18T13:40:14.658Z,12.62
2024-04-18T13:42:41.238Z,12.88
2024-04-18T13:45:07.956Z,12.60
2024-04-18T13:47:34.859Z,12.70
2024-04-18T13:50:01.506Z,12.98
2024-04-18T13:52:28.001Z,11.93
2024-04-18T13:54:54.498Z,12.20
2024-04-18T13:57:21.057Z,11.86
2024-04-18T13:59:47.674Z,12.29
2024-04-18T14:02:17.182Z,12.77
2024-04-18T14:04:43.862Z,13.05
2024-04-18T14:07:10.758Z,12.70
2024-04-18T14:09:37.414Z,12.82
2024-04-18T14:12:04.833Z,12.19
2024-04-18T14:14:31.775Z,12.28
2024-04-18T14:17:12.454Z,11.81
2024-04-18T14:19:40.539Z,11.58
2024-04-18T14:22:07.385Z,11.86
2024-04-18T14:24:34.235Z,12.30
2024-04-18T14:27:01.855Z,11.89
2024-04-18T14:29:28.415Z,12.08
2024-04-18T14:31:56.994Z,12.30
2024-04-18T14:34:24.976Z,12.25
2024-04-18T14:36:51.717Z,11.67
2024-04-18T14:39:18.259Z,11.75
2024-04-18T14:41:44.797Z,11.90
2024-04-18T14:44:11.374Z,11.97
2024-04-18T14:46:38.130Z,11.98
2024-04-18T14:49:14.003Z,11.84
2024-04-18T14:51:45.397Z,11.49
2024-04-18T14:54:11.972Z,11.14
2024-04-18T14:56:38.471Z,10.84
2024-04-18T14:59:04.995Z,11.24
2024-04-18T15:01:31.509Z,11.38
2024-04-18T15:03:58.135Z,11.40
2024-04-18T15:06:24.732Z,11.54
2024-04-18T15:08:51.375Z,11.70
2024-04-18T15:11:17.929Z,11.33
2024-04-18T15:16:30.699Z,11.90
2024-04-18T15:19:01.725Z,12.45
2024-04-18T15:21:28.352Z,12.59
2024-04-18T15:23:54.920Z,12.27
2024-04-18T15:26:21.436Z,12.01
2024-04-18T15:28:51.216Z,12.11
2024-04-18T15:31:17.833Z,12.07
2024-04-18T15:33:44.547Z,11.84
2024-04-18T15:36:14.214Z,11.58
2024-04-18T15:38:40.886Z,10.81
2024-04-18T15:41:07.424Z,10.87
2024-04-18T15:43:35.318Z,11.33
2024-04-18T15:46:05.054Z,11.46
2024-04-18T15:48:32.066Z,11.14
2024-04-18T15:50:59.384Z,10.78
2024-04-18T15:53:25.895Z,10.74
2024-04-18T15:55:52.450Z,10.83
2024-04-18T15:58:19.348Z,10.68
2024-04-18T16:00:46.020Z,11.07
2024-04-18T16:03:12.636Z,10.90
2024-04-18T16:05:39.251Z,10.95
2024-04-18T16:08:05.935Z,10.56
2024-04-18T16:10:35.076Z,10.75
2024-04-18T16:13:01.680Z,10.41
2024-04-18T16:15:30.955Z,10.32
2024-04-18T16:18:00.993Z,9.85
2024-04-18T16:20:27.927Z,9.99
2024-04-18T16:22:57.001Z,9.73
2024-04-18T16:25:23.530Z,10.09
2024-04-18T16:27:50.024Z,10.23
2024-04-18T16:30:16.796Z,9.83
2024-04-18T16:32:47.045Z,10.20
2024-04-18T16:35:13.712Z,10.14
2024-04-18T16:37:40.274Z,9.89
2024-04-18T16:40:17.185Z,9.78
2024-04-18T16:42:43.708Z,9.78
2024-04-18T16:45:10.250Z,9.55
2024-04-18T16:47:36.854Z,9.47
2024-04-18T16:50:03.674Z,9.82
2024-04-18T16:52:30.257Z,9.93
2024-04-18T16:54:56.718Z,9.97
2024-04-18T16:57:24.286Z,9.70
2024-04-18T16:59:50.899Z,9.76
2024-04-18T17:02:17.535Z,9.73
2024-04-18T17:04:44.233Z,9.48
2024-04-18T17:07:13.621Z,9.36
2024-04-18T17:09:40.329Z,9.44
2024-04-18T17:12:07.116Z,9.30
2024-04-18T17:14:33.909Z,8.95
2024-04-18T17:17:01.061Z,8.78
2024-04-18T17:19:28.342Z,8.95
2024-04-18T17:21:58.962Z,8.87
2024-04-18T17:24:25.548Z,8.64
2024-04-18T17:26:52.150Z,8.71
2024-04-18T17:29:18.698Z,8.44
2024-04-18T17:31:45.316Z,8.59
2024-04-18T17:34:11.910Z,8.62
2024-04-18T17:36:38.796Z,8.57
2024-04-18T17:39:09.506Z,8.61
2024-04-18T17:41:36.320Z,8.59
2024-04-18T17:44:03.202Z,8.27
2024-04-18T17:46:29.742Z,8.40
2024-04-18T17:48:56.417Z,8.43
2024-04-18T17:51:24.272Z,8.20
2024-04-18T17:53:50.975Z,8.28
2024-04-18T17:56:17.559Z,7.95
2024-04-18T17:58:44.080Z,7.95
2024-04-18T18:01:10.606Z,7.98
2024-04-18T18:03:38.508Z,8.02
2024-04-18T18:06:05.324Z,7.76
2024-04-18T18:08:34.158Z,8.04
2024-04-18T18:11:00.770Z,7.97
2024-04-18T18:13:27.487Z,7.87
2024-04-18T18:15:54.020Z,7.98
2024-04-18T18:18:20.809Z,7.59
2024-04-18T18:20:47.420Z,7.72
2024-04-18T18:23:16.648Z,7.79
2024-04-18T18:25:46.449Z,7.55
2024-04-18T18:28:13.079Z,7.54
2024-04-18T18:30:39.979Z,7.41
2024-04-18T18:33:06.938Z,7.56
2024-04-18T18:35:35.809Z,7.60
2024-04-18T18:38:02.394Z,7.62
2024-04-18T18:40:35.929Z,7.51
2024-04-18T18:43:02.890Z,7.60
2024-04-18T18:45:32.154Z,7.56
2024-04-18T18:47:58.813Z,7.37
2024-04-18T18:50:25.348Z,7.33
2024-04-18T18:52:54.942Z,7.49
2024-04-18T18:55:21.495Z,7.34
2024-04-18T18:57:48.063Z,7.25
2024-04-18T19:00:15.518Z,7.31
2024-04-18T19:02:44.281Z,7.23
2024-04-18T19:05:11.038Z,7.32
2024-04-18T19:07:37.526Z,7.26
2024-04-18T19:10:04.531Z,7.31
2024-04-18T19:12:31.075Z,7.11
2024-04-18T19:14:57.671Z,7.24
2024-04-18T19:17:24.719Z,6.99
2024-04-18T19:19:51.330Z,7.04
2024-04-18T19:22:17.934Z,7.17
2024-04-18T19:24:44.569Z,7.18
2024-04-18T19:27:11.202Z,7.19
2024-04-18T19:29:44.869Z,7.08
2024-04-18T19:32:14.447Z,7.01
2024-04-18T19:34:43.983Z,7.00
2024-04-18T19:37:10.844Z,6.82
2024-04-18T19:39:37.407Z,7.00
2024-04-18T19:42:05.254Z,7.17
2024-04-18T19:44:31.909Z,7.14
2024-04-18T19:46:58.597Z,6.96
2024-04-18T19:49:25.401Z,7.16
2024-04-18T19:51:51.947Z,6.96
2024-04-18T19:54:18.507Z,6.94
2024-04-18T19:56:45.542Z,6.94
2024-04-18T19:59:12.091Z,6.91
2024-04-18T20:01:38.632Z,6.95
2024-04-18T20:04:05.615Z,6.91
2024-04-18T20:06:32.166Z,6.79
2024-04-18T20:08:59.819Z,6.85
2024-04-18T20:11:32.785Z,6.84
2024-04-18T20:13:59.763Z,6.82
2024-04-18T20:16:29.674Z,6.76
2024-04-18T20:18:57.709Z,6.66
2024-04-18T20:21:28.953Z,6.46
2024-04-18T20:23:56.977Z,6.71
2024-04-18T20:26:23.599Z,6.66
2024-04-18T20:28:50.131Z,6.67
2024-04-18T20:31:16.764Z,6.57
2024-04-18T20:33:43.388Z,6.47
2024-04-18T20:36:10.153Z,6.74
2024-04-18T20:38:36.847Z,6.47
2024-04-18T20:41:03.570Z,6.35
2024-04-18T20:43:30.178Z,6.48
2024-04-18T20:45:56.739Z,6.66
2024-04-18T20:48:23.398Z,6.65
2024-04-18T20:50:50.081Z,6.59
2024-04-18T20:53:16.788Z,6.67
2024-04-18T20:55:43.346Z,6.62
2024-04-18T20:58:10.992Z,6.67
2024-04-18T21:00:37.741Z,6.70
2024-04-18T21:03:04.787Z,6.58
2024-04-18T21:05:34.348Z,6.57
2024-04-18T21:08:03.967Z,6.61
2024-04-18T21:10:30.526Z,6.60
2024-04-18T21:12:57.118Z,6.71
2024-04-18T21:15:23.794Z,6.66
2024-04-18T21:17:50.659Z,6.52
2024-04-18T21:20:17.361Z,6.66
2024-04-18T21:22:43.894Z,6.53
2024-04-18T21:25:10.557Z,6.55
2024-04-18T21:27:38.669Z,6.54
2024-04-18T21:30:05.738Z,6.55
2024-04-18T21:32:32.231Z,6.53
2024-04-18T21:34:58.919Z,6.63
2024-04-18T21:37:25.742Z,6.64
2024-04-18T21:39:52.367Z,6.38
2024-04-18T21:42:19.228Z,6.55
2024-04-18T21:44:45.770Z,6.50
2024-04-18T21:47:15.421Z,6.37
2024-04-18T21:49:42.228Z,6.39
2024-04-18T21:52:08.729Z,6.48
2024-04-18T21:54:38.523Z,6.23
2024-04-18T21:57:05.320Z,6.22
2024-04-18T21:59:31.975Z,6.16
2024-04-18T22:01:59.936Z,6.16
2024-04-18T22:04:26.558Z,6.08
2024-04-18T22:06:53.312Z,6.04
2024-04-18T22:09:21.564Z,5.98
2024-04-18T22:11:50.997Z,5.84
2024-04-18T22:14:17.582Z,5.74
2024-04-18T22:16:44.239Z,5.85
2024-04-18T22:19:11.111Z,5.76
2024-04-18T22:21:40.119Z,5.86
2024-04-18T22:24:07.730Z,5.71
2024-04-18T22:26:35.112Z,5.86
2024-04-18T22:29:01.605Z,5.72
2024-04-18T22:31:29.254Z,5.84
2024-04-18T22:33:58.815Z,5.68
2024-04-18T22:36:29.714Z,5.77
2024-04-18T22:38:57.114Z,5.74
2024-04-18T22:41:23.958Z,5.73
2024-04-18T22:43:51.657Z,5.78
2024-04-18T22:46:18.411Z,5.75
2024-04-18T22:48:47.864Z,5.79
2024-04-18T22:51:14.414Z,5.66
2024-04-18T22:53:40.919Z,5.83
2024-04-18T22:56:07.964Z,5.55
2024-04-18T22:58:34.565Z,5.70
2024-04-18T23:01:01.351Z,5.78
2024-04-18T23:03:29.283Z,5.55
2024-04-18T23:05:55.992Z,5.66
2024-04-18T23:08:22.488Z,5.67
2024-04-18T23:10:49.258Z,5.70
2024-04-18T23:13:16.408Z,5.79
2024-04-18T23:15:43.020Z,5.83
2024-04-18T23:18:09.707Z,5.53
2024-04-18T23:20:36.454Z,5.54
2024-04-18T23:23:02.935Z,5.73
2024-04-18T23:25:30.063Z,5.56
2024-04-18T23:28:02.013Z,5.60
2024-04-18T23:30:31.065Z,5.63
2024-04-18T23:32:57.742Z,5.49
2024-04-18T23:35:27.236Z,5.42
2024-04-18T23:37:53.857Z,5.40
2024-04-18T23:40:20.423Z,5.32
2024-04-18T23:42:46.952Z,5.44
2024-04-18T23:45:13.489Z,5.46
2024-04-18T23:47:40.183Z,5.38
2024-04-18T23:50:07.181Z,5.42
2024-04-18T23:52:34.068Z,5.36
2024-04-18T23:55:00.653Z,5.23
2024-04-18T23:57:27.244Z,5.40
2024-04-18T23:59:53.760Z,5.16
